createdAt,value
2022-10-22T00:00:55.877Z,18.10
2022-10-22T00:04:57.510Z,17.83
2022-10-22T00:08:59.162Z,17.25
2022-10-22T00:13:00.719Z,18.73
2022-10-22T00:17:02.445Z,18.67
2022-10-22T00:21:05.414Z,17.42
2022-10-22T00:25:07.503Z,20.75
2022-10-22T00:29:09.274Z,17.63
2022-10-22T00:33:10.852Z,18.95
2022-10-22T00:37:12.608Z,20.00
2022-10-22T00:41:14.689Z,19.25
2022-10-22T00:45:27.383Z,18.02
2022-10-22T00:49:29.134Z,20.40
2022-10-22T00:53:39.977Z,19.25
2022-10-22T00:57:42.583Z,20.30
2022-10-22T01:01:45.144Z,19.77
2022-10-22T01:05:58.283Z,20.23
2022-10-22T01:10:29.309Z,21.27
2022-10-22T01:15:06.304Z,19.50
2022-10-22T01:19:32.124Z,19.98
2022-10-22T01:23:45.778Z,20.30
2022-10-22T01:28:14.469Z,19.60
2022-10-22T01:32:23.149Z,18.52
2022-10-22T01:36:25.906Z,19.00
2022-10-22T01:40:28.984Z,19.98
2022-10-22T01:44:33.155Z,21.17
2022-10-22T01:48:58.014Z,20.25
2022-10-22T01:57:12.717Z,20.25
2022-10-22T02:01:23.108Z,18.13
2022-10-22T02:05:36.298Z,18.83
2022-10-22T02:09:40.942Z,20.27
2022-10-22T02:13:46.947Z,20.08
2022-10-22T02:17:50.620Z,20.25
2022-10-22T02:21:53.838Z,19.80
2022-10-22T02:26:06.063Z,19.13
2022-10-22T02:34:14.621Z,20.02
2022-10-22T02:38:17.011Z,19.73
2022-10-22T02:42:18.728Z,18.83
2022-10-22T02:46:20.953Z,20.17
2022-10-22T02:50:22.868Z,17.35
2022-10-22T02:54:24.489Z,20.25
2022-10-22T02:58:26.051Z,19.98
2022-10-22T03:02:27.497Z,18.85
2022-10-22T03:06:29.093Z,19.40
2022-10-22T03:10:30.749Z,18.70
2022-10-22T03:14:32.249Z,18.33
2022-10-22T03:18:33.829Z,18.77
2022-10-22T03:22:38.052Z,20.33
2022-10-22T03:26:42.032Z,17.92
2022-10-22T03:30:43.572Z,17.75
2022-10-22T03:34:45.362Z,17.45
2022-10-22T03:38:47.300Z,19.40
2022-10-22T03:42:48.913Z,18.38
2022-10-22T03:46:50.716Z,18.13
2022-10-22T03:50:52.323Z,20.33
2022-10-22T03:54:53.968Z,18.48
2022-10-22T03:58:57.734Z,19.58
2022-10-22T04:02:59.209Z,18.27
2022-10-22T04:07:00.982Z,18.75
2022-10-22T04:11:02.677Z,20.02
2022-10-22T04:15:05.048Z,20.45
2022-10-22T04:19:07.052Z,20.02
2022-10-22T04:23:08.626Z,21.02
2022-10-22T04:27:10.142Z,17.85
2022-10-22T04:31:14.174Z,19.98
2022-10-22T04:35:15.769Z,20.25
2022-10-22T04:39:17.433Z,17.80
2022-10-22T04:43:19.062Z,18.88
2022-10-22T04:47:20.764Z,18.75
2022-10-22T04:51:24.484Z,18.98
2022-10-22T04:55:26.247Z,18.10
2022-10-22T04:59:27.820Z,19.65
2022-10-22T05:03:29.321Z,18.60
2022-10-22T05:07:30.767Z,18.85
2022-10-22T05:11:35.416Z,17.80
2022-10-22T05:15:36.900Z,17.50
2022-10-22T05:19:38.385Z,17.90
2022-10-22T05:23:40.133Z,18.60
2022-10-22T05:27:42.044Z,18.65
2022-10-22T05:31:43.731Z,19.23
2022-10-22T05:35:46.789Z,19.60
2022-10-22T05:39:51.748Z,15.32
2022-10-22T05:43:59.670Z,17.58
2022-10-22T05:48:01.177Z,17.42
2022-10-22T05:52:02.838Z,17.88
2022-10-22T05:56:08.041Z,17.98
2022-10-22T06:00:12.837Z,17.75
2022-10-22T06:04:17.905Z,17.50
2022-10-22T06:08:22.059Z,17.02
2022-10-22T06:12:23.982Z,15.35
2022-10-22T06:16:28.315Z,16.50
2022-10-22T06:20:29.899Z,16.13
2022-10-22T06:24:31.631Z,17.98
2022-10-22T06:28:34.417Z,15.95
2022-10-22T06:32:39.246Z,16.27
2022-10-22T06:36:42.723Z,17.08
2022-10-22T06:40:45.210Z,16.60
2022-10-22T06:44:46.942Z,17.33
2022-10-22T06:48:50.901Z,17.38
2022-10-22T06:52:52.380Z,16.35
2022-10-22T06:56:54.220Z,15.23
2022-10-22T07:01:04.735Z,16.42
2022-10-22T07:05:07.201Z,17.08
2022-10-22T07:09:08.927Z,16.05
2022-10-22T07:13:10.659Z,17.80
2022-10-22T07:17:12.174Z,19.13
2022-10-22T07:21:16.454Z,16.98
2022-10-22T07:25:17.971Z,15.63
2022-10-22T07:29:19.495Z,15.90
2022-10-22T07:33:21.228Z,16.88
2022-10-22T07:37:22.879Z,18.10
2022-10-22T07:41:26.418Z,17.30
2022-10-22T07:45:28.338Z,17.05
2022-10-22T07:49:29.926Z,18.58
2022-10-22T07:53:31.772Z,18.50
2022-10-22T07:57:33.277Z,18.90
2022-10-22T08:01:35.022Z,20.15
2022-10-22T08:05:36.615Z,19.65
2022-10-22T08:09:38.135Z,20.08
2022-10-22T08:13:44.830Z,18.48
2022-10-22T08:17:47.173Z,21.85
2022-10-22T08:21:48.680Z,17.60
2022-10-22T08:25:50.612Z,18.65
2022-10-22T08:29:52.320Z,19.67
2022-10-22T08:33:53.932Z,18.80
2022-10-22T08:37:55.605Z,16.23
2022-10-22T08:42:26.085Z,17.80
2022-10-22T08:46:32.997Z,18.13
2022-10-22T08:51:00.864Z,15.05
2022-10-22T08:55:04.166Z,15.98
2022-10-22T08:59:21.369Z,16.23
2022-10-22T09:03:27.655Z,15.45
2022-10-22T09:07:29.338Z,13.32
2022-10-22T09:11:37.607Z,13.40
2022-10-22T09:15:40.818Z,13.18
2022-10-22T09:20:09.192Z,14.45
2022-10-22T09:24:32.871Z,13.77
2022-10-22T09:28:34.936Z,13.25
2022-10-22T09:32:36.501Z,12.45
2022-10-22T09:36:38.037Z,12.45
2022-10-22T09:40:50.530Z,13.27
2022-10-22T09:44:55.004Z,11.80
2022-10-22T09:49:03.402Z,9.73
2022-10-22T09:53:14.051Z,10.20
2022-10-22T09:57:22.016Z,9.43
2022-10-22T10:01:33.758Z,8.82
2022-10-22T10:05:37.534Z,7.65
2022-10-22T10:09:39.545Z,7.72
2022-10-22T10:13:46.285Z,8.20
2022-10-22T10:18:00.041Z,6.85
2022-10-22T10:22:18.016Z,7.18
2022-10-22T10:26:31.541Z,5.43
2022-10-22T10:30:38.676Z,7.07
2022-10-22T10:35:02.851Z,6.78
2022-10-22T10:39:23.989Z,6.13
2022-10-22T10:43:30.427Z,5.75
2022-10-22T10:48:09.919Z,6.53
2022-10-22T10:53:04.412Z,6.18
2022-10-22T10:57:22.031Z,5.22
2022-10-22T11:01:36.085Z,4.40
2022-10-22T11:05:50.171Z,4.18
2022-10-22T11:10:02.207Z,4.05
2022-10-22T11:14:13.932Z,3.75
2022-10-22T11:18:28.362Z,3.65
2022-10-22T11:23:06.592Z,3.83
2022-10-22T11:27:19.693Z,4.50
2022-10-22T11:31:24.779Z,4.50
2022-10-22T11:35:31.450Z,4.50
2022-10-22T11:39:42.116Z,4.40
2022-10-22T11:44:03.033Z,3.97
2022-10-22T11:48:10.390Z,5.07
2022-10-22T11:52:45.621Z,5.32
2022-10-22T11:56:47.204Z,5.32
2022-10-22T12:00:49.466Z,5.15
2022-10-22T12:04:51.107Z,4.97
2022-10-22T12:08:52.877Z,5.00
2022-10-22T12:13:10.991Z,4.55
2022-10-22T12:17:16.171Z,4.65
2022-10-22T12:21:17.729Z,4.65
2022-10-22T12:25:23.681Z,5.20
2022-10-22T12:29:26.560Z,4.90
2022-10-22T12:33:32.617Z,4.88
2022-10-22T12:37:38.008Z,5.28
2022-10-22T12:41:40.478Z,4.43
2022-10-22T12:45:44.890Z,4.43
2022-10-22T12:49:49.183Z,3.92
2022-10-22T12:57:54.814Z,4.20
2022-10-22T13:01:56.935Z,3.45
2022-10-22T13:06:23.937Z,3.40
2022-10-22T13:10:32.220Z,3.45
2022-10-22T13:14:38.060Z,3.70
2022-10-22T13:18:40.889Z,3.45
2022-10-22T13:23:04.999Z,3.75
2022-10-22T13:27:09.425Z,3.75
2022-10-22T13:31:20.266Z,3.80
2022-10-22T13:35:26.327Z,2.88
2022-10-22T13:39:27.839Z,2.90
2022-10-22T13:43:29.359Z,3.03
2022-10-22T13:47:31.084Z,3.10
2022-10-22T13:51:35.322Z,3.42
2022-10-22T13:55:36.838Z,3.15
2022-10-22T13:59:38.321Z,1.25
2022-10-22T14:03:40.498Z,1.10
2022-10-22T14:07:42.226Z,0.80
2022-10-22T14:11:44.043Z,0.82
2022-10-22T14:15:48.162Z,0.73
2022-10-22T14:19:49.865Z,0.70
2022-10-22T14:23:52.780Z,0.80
2022-10-22T14:27:54.710Z,0.73
2022-10-22T14:31:56.445Z,0.90
2022-10-22T14:35:59.690Z,0.80
2022-10-22T14:40:02.506Z,0.98
2022-10-22T14:44:04.461Z,0.85
2022-10-22T14:48:06.477Z,0.90
2022-10-22T14:52:10.580Z,0.90
2022-10-22T14:56:16.717Z,0.77
2022-10-22T15:00:18.628Z,0.75
2022-10-22T15:04:20.167Z,0.80
2022-10-22T15:08:21.768Z,1.00
2022-10-22T15:12:23.336Z,0.70
2022-10-22T15:16:25.678Z,0.93
2022-10-22T15:20:27.339Z,1.00
2022-10-22T15:24:28.900Z,0.85
2022-10-22T15:28:30.381Z,0.82
2022-10-22T15:32:33.595Z,1.08
2022-10-22T15:36:35.180Z,1.08
2022-10-22T15:40:36.844Z,1.20
2022-10-22T15:44:39.826Z,2.60
2022-10-22T15:48:41.919Z,5.40
2022-10-22T15:52:43.388Z,5.13
2022-10-22T15:56:45.860Z,5.75
2022-10-22T16:00:47.451Z,6.53
2022-10-22T16:04:49.035Z,7.78
2022-10-22T16:08:50.517Z,8.13
2022-10-22T16:12:54.411Z,8.73
2022-10-22T16:16:56.705Z,9.60
2022-10-22T16:20:58.797Z,10.45
2022-10-22T16:25:00.311Z,9.05
2022-10-22T16:29:02.744Z,10.82
2022-10-22T16:33:06.304Z,11.10
2022-10-22T16:37:10.239Z,11.55
2022-10-22T16:41:20.716Z,11.05
2022-10-22T16:45:22.540Z,12.68
2022-10-22T16:49:24.270Z,13.25
2022-10-22T16:53:31.301Z,12.73
2022-10-22T16:57:34.069Z,12.85
2022-10-22T17:01:40.598Z,13.52
2022-10-22T17:05:43.003Z,14.60
2022-10-22T17:09:44.627Z,12.82
2022-10-22T17:13:48.939Z,14.60
2022-10-22T17:17:53.582Z,13.45
2022-10-22T17:21:58.362Z,14.25
2022-10-22T17:26:08.187Z,14.18
2022-10-22T17:30:17.270Z,14.68
2022-10-22T17:34:18.857Z,15.98
2022-10-22T17:38:20.489Z,15.13
2022-10-22T17:42:22.086Z,15.30
2022-10-22T17:46:26.090Z,18.30
2022-10-22T17:50:30.484Z,15.07
2022-10-22T17:54:33.341Z,16.20
2022-10-22T17:58:34.903Z,16.50
2022-10-22T18:02:36.561Z,18.23
2022-10-22T18:06:38.195Z,17.77
2022-10-22T18:10:41.265Z,16.02
2022-10-22T18:14:47.079Z,19.13
2022-10-22T18:19:02.645Z,16.40
2022-10-22T18:23:05.439Z,17.58
2022-10-22T18:27:07.651Z,17.67
2022-10-22T18:31:12.656Z,17.27
2022-10-22T18:35:14.230Z,18.92
2022-10-22T18:39:16.098Z,18.20
2022-10-22T18:43:18.564Z,17.52
2022-10-22T18:47:20.099Z,19.52
2022-10-22T18:51:22.791Z,17.50
2022-10-22T18:55:28.264Z,16.60
2022-10-22T18:59:30.617Z,17.73
2022-10-22T19:03:32.135Z,17.67
2022-10-22T19:07:36.643Z,18.80
2022-10-22T19:11:38.446Z,17.08
2022-10-22T19:15:40.210Z,17.85
2022-10-22T19:19:44.515Z,18.27
2022-10-22T19:23:46.385Z,17.08
2022-10-22T19:27:51.670Z,17.88
2022-10-22T19:31:53.803Z,17.50
2022-10-22T19:35:55.662Z,17.42
2022-10-22T19:39:57.175Z,17.25
2022-10-22T19:44:00.496Z,15.43
2022-10-22T19:48:02.104Z,15.90
2022-10-22T19:52:03.970Z,14.38
2022-10-22T19:56:08.576Z,12.57
2022-10-22T20:00:10.863Z,15.38
2022-10-22T20:04:17.796Z,13.50
2022-10-22T20:08:19.589Z,12.77
2022-10-22T20:12:21.052Z,11.52
2022-10-22T20:16:24.849Z,12.52
2022-10-22T20:20:26.690Z,12.20
2022-10-22T20:24:52.448Z,10.77
2022-10-22T20:28:55.892Z,11.30
2022-10-22T20:32:57.542Z,9.63
2022-10-22T20:36:59.036Z,10.18
2022-10-22T20:41:21.010Z,9.73
2022-10-22T20:45:22.521Z,10.25
2022-10-22T20:49:24.305Z,9.55
2022-10-22T20:53:27.522Z,9.95
2022-10-22T20:57:29.406Z,10.40
2022-10-22T21:01:42.775Z,9.77
2022-10-22T21:05:44.475Z,10.50
2022-10-22T21:09:46.048Z,10.40
2022-10-22T21:13:47.642Z,9.32
2022-10-22T21:17:49.190Z,10.98
2022-10-22T21:21:50.955Z,9.77
2022-10-22T21:25:57.402Z,9.90
2022-10-22T21:29:59.027Z,9.57
2022-10-22T21:34:00.836Z,9.27
2022-10-22T21:38:02.378Z,9.63
2022-10-22T21:42:03.997Z,9.40
2022-10-22T21:46:08.482Z,9.52
2022-10-22T21:50:10.348Z,9.15
2022-10-22T21:54:12.626Z,10.05
2022-10-22T21:58:14.305Z,9.27
2022-10-22T22:02:15.875Z,9.02
2022-10-22T22:06:21.726Z,8.55
2022-10-22T22:10:26.458Z,9.18
2022-10-22T22:14:28.147Z,10.18
2022-10-22T22:18:31.075Z,9.13
2022-10-22T22:22:33.365Z,8.70
2022-10-22T22:26:36.150Z,8.68
2022-10-22T22:30:37.754Z,8.98
2022-10-22T22:34:39.961Z,10.45
2022-10-22T22:38:41.986Z,9.98
2022-10-22T22:42:43.481Z,8.75
2022-10-22T22:46:45.240Z,9.00
2022-10-22T22:50:48.166Z,9.15
2022-10-22T22:54:49.694Z,8.93
2022-10-22T22:58:51.487Z,8.40
2022-10-22T23:02:56.007Z,8.80
2022-10-22T23:06:57.645Z,10.10
2022-10-22T23:11:08.469Z,9.57
2022-10-22T23:15:10.702Z,10.27
2022-10-22T23:19:15.124Z,8.35
2022-10-22T23:23:16.893Z,9.65
2022-10-22T23:27:18.462Z,9.05
2022-10-22T23:31:21.734Z,9.60
2022-10-22T23:35:23.369Z,9.93
2022-10-22T23:39:27.174Z,9.38
2022-10-22T23:43:29.593Z,9.80
2022-10-22T23:47:31.179Z,9.57
2022-10-22T23:51:32.740Z,9.20
2022-10-22T23:55:37.279Z,9.88
2022-10-22T23:59:38.824Z,10.75
